Time;durP1;ratioP1;P1;durP2;ratioP2;P2;SDS_P1;SDS_P2;PMS_P1;PMS_P2;Temp;Humidity;BMP_temperature;BMP_pressure;BME280_temperature;BME280_humidity;BME280_pressure;Samples;Min_cycle;Max_cycle;Signal;HPM_P1;HPM_P2
2022/02/15 00:00:44;;;;;;;33.90;16.10;;;;;;;2.88;59.13;98765.58;105997;1276;107660;-71
2022/02/15 00:03:12;;;;;;;38.00;15.90;;;;;;;2.85;59.24;98759.61;105979;1276;97942;-71
2022/02/15 00:05:40;;;;;;;32.70;16.30;;;;;;;2.85;59.12;98757.71;105942;1276;95284;-70
2022/02/15 00:08:08;;;;;;;32.50;15.30;;;;;;;2.83;59.44;98756.34;105947;1276;111381;-70
2022/02/15 00:10:36;;;;;;;29.60;13.20;;;;;;;2.83;59.52;98751.46;105958;1276;97899;-71
2022/02/15 00:13:03;;;;;;;29.40;13.90;;;;;;;2.82;59.90;98751.65;105956;1276;108532;-71
2022/02/15 00:15:31;;;;;;;31.20;14.80;;;;;;;2.84;59.78;98753.18;105944;1276;95319;-71
2022/02/15 00:17:59;;;;;;;29.80;15.10;;;;;;;2.84;59.74;98755.61;105977;1276;98951;-71
2022/02/15 00:20:27;;;;;;;29.40;13.70;;;;;;;2.84;59.74;98752.12;105980;1276;111392;-70
2022/02/15 00:22:55;;;;;;;29.40;13.20;;;;;;;2.84;59.50;98762.81;105996;1276;97996;-70
2022/02/15 00:25:24;;;;;;;31.10;14.60;;;;;;;2.83;59.38;98756.19;105923;1276;107502;-71
2022/02/15 00:27:53;;;;;;;26.70;13.10;;;;;;;2.82;59.73;98760.44;106043;1276;97971;-70
2022/02/15 00:30:22;;;;;;;28.30;14.00;;;;;;;2.82;59.78;98759.04;105974;1276;97992;-69
2022/02/15 00:32:51;;;;;;;28.30;13.90;;;;;;;2.82;59.69;98754.84;105976;1276;111500;-70
2022/02/15 00:35:20;;;;;;;29.60;14.90;;;;;;;2.81;59.32;98755.91;106007;1276;95297;-71
2022/02/15 00:37:48;;;;;;;30.70;14.30;;;;;;;2.82;59.53;98752.35;106039;1276;107714;-69
2022/02/15 00:40:16;;;;;;;31.10;15.20;;;;;;;2.83;59.58;98754.08;106010;1276;98634;-70
2022/02/15 00:42:44;;;;;;;29.20;13.20;;;;;;;2.84;59.39;98751.42;106091;1276;97936;-69
2022/02/15 00:45:12;;;;;;;28.30;12.90;;;;;;;2.84;59.60;98752.11;105987;1276;111374;-70
2022/02/15 00:47:40;;;;;;;26.70;12.50;;;;;;;2.84;59.59;98751.24;105959;1276;97991;-70
2022/02/15 00:50:09;;;;;;;29.70;14.20;;;;;;;2.83;59.43;98747.41;105945;1276;107734;-71
2022/02/15 00:52:38;;;;;;;26.50;13.70;;;;;;;2.87;59.56;98745.16;105965;1276;97881;-71
2022/02/15 00:55:08;;;;;;;26.80;13.80;;;;;;;2.92;59.40;98750.88;105985;1276;96336;-70
2022/02/15 00:57:37;;;;;;;33.00;15.50;;;;;;;2.97;59.67;98748.01;105978;1276;111353;-71
2022/02/15 01:00:07;;;;;;;34.70;17.30;;;;;;;3.04;59.60;98744.36;105982;1276;97834;-72
2022/02/15 01:02:35;;;;;;;28.70;14.40;;;;;;;3.08;59.62;98742.39;105969;1276;107592;-72
2022/02/15 01:05:05;;;;;;;29.30;14.10;;;;;;;3.11;59.94;98737.20;105986;1276;97892;-71
2022/02/15 01:07:32;;;;;;;30.10;14.70;;;;;;;3.12;59.49;98735.74;106009;1276;97838;-71
2022/02/15 01:10:00;;;;;;;29.30;14.30;;;;;;;3.11;59.85;98730.69;106001;1276;109933;-70
2022/02/15 01:12:28;;;;;;;30.70;13.90;;;;;;;3.09;59.54;98726.79;106017;1276;97899;-69
2022/02/15 01:14:56;;;;;;;28.40;13.10;;;;;;;3.02;59.78;98725.88;106052;1276;107949;-70
2022/02/15 01:17:24;;;;;;;28.20;13.60;;;;;;;2.98;59.63;98723.98;106021;1277;97903;-70
2022/02/15 01:19:52;;;;;;;27.30;13.20;;;;;;;2.94;59.58;98723.46;106080;1277;95190;-71
2022/02/15 01:22:20;;;;;;;28.80;13.20;;;;;;;2.89;59.53;98719.13;106094;1277;111437;-69
2022/02/15 01:24:48;;;;;;;27.50;12.90;;;;;;;2.85;59.74;98714.58;105988;1275;97936;-70
2022/02/15 01:27:16;;;;;;;27.20;13.00;;;;;;;2.85;59.73;98712.67;105992;1276;107708;-71
2022/02/15 01:29:43;;;;;;;28.50;12.60;;;;;;;2.85;59.40;98708.65;105997;1277;95290;-70
2022/02/15 01:32:12;;;;;;;27.20;11.80;;;;;;;2.85;59.64;98710.22;105998;1277;95266;-71
2022/02/15 01:34:42;;;;;;;27.80;12.50;;;;;;;2.88;59.70;98703.60;106118;1276;112870;-71
2022/02/15 01:37:10;;;;;;;29.00;13.20;;;;;;;2.90;59.59;98701.02;106005;1278;96995;-70
2022/02/15 01:39:38;;;;;;;29.10;13.10;;;;;;;2.95;59.83;98694.33;106030;1276;107778;-70
2022/02/15 01:42:06;;;;;;;27.20;12.30;;;;;;;3.04;59.89;98686.20;105977;1277;98046;-71
2022/02/15 01:44:36;;;;;;;26.80;11.90;;;;;;;3.08;59.99;98680.39;105963;1277;97867;-69
2022/02/15 01:47:05;;;;;;;27.70;12.90;;;;;;;3.06;59.75;98677.51;105992;1276;111447;-70
2022/02/15 01:49:33;;;;;;;27.60;12.20;;;;;;;3.03;59.93;98675.38;106067;1276;97883;-71
2022/02/15 01:52:01;;;;;;;30.20;14.40;;;;;;;2.98;59.89;98677.02;105940;1277;106930;-70
2022/02/15 01:54:29;;;;;;;30.20;13.40;;;;;;;2.92;59.74;98669.95;105999;1276;97863;-69
2022/02/15 01:56:57;;;;;;;29.60;13.90;;;;;;;2.84;60.03;98667.70;106023;1278;97010;-71
2022/02/15 01:59:25;;;;;;;29.70;13.20;;;;;;;2.76;60.19;98669.14;105953;1278;110971;-70
2022/02/15 02:01:53;;;;;;;28.70;13.30;;;;;;;2.71;60.07;98672.31;105895;1278;96384;-72
2022/02/15 02:07:07;;;;;;;28.60;12.70;;;;;;;2.67;60.22;98670.72;105987;1276;97912;-69
2022/02/15 02:09:35;;;;;;;32.70;14.40;;;;;;;2.64;60.31;98670.02;106007;1276;97872;-70
2022/02/15 02:12:05;;;;;;;27.30;13.40;;;;;;;2.59;60.51;98672.72;105982;1276;111374;-71
2022/02/15 02:14:33;;;;;;;29.20;14.10;;;;;;;2.55;60.55;98676.23;106004;1277;97853;-71
2022/02/15 02:17:01;;;;;;;28.80;14.20;;;;;;;2.53;60.68;98670.15;106013;1276;107795;-69
2022/02/15 02:19:29;;;;;;;30.30;14.30;;;;;;;2.55;60.41;98672.56;106008;1276;97913;-72
2022/02/15 02:21:59;;;;;;;32.50;14.00;;;;;;;2.57;60.46;98675.63;106058;1277;98681;-70
2022/02/15 02:24:27;;;;;;;31.30;14.70;;;;;;;2.59;60.54;98673.94;106028;1276;112615;-71
2022/02/15 02:26:54;;;;;;;32.40;14.90;;;;;;;2.60;60.28;98670.03;106001;1277;97864;-70
2022/02/15 02:29:22;;;;;;;31.10;15.20;;;;;;;2.60;60.52;98667.79;105993;1277;107843;-71
2022/02/15 02:31:50;;;;;;;30.00;14.20;;;;;;;2.57;60.81;98663.89;105993;1277;95316;-69
2022/02/15 02:34:18;;;;;;;28.90;13.80;;;;;;;2.58;60.41;98664.70;106044;1276;97979;-71
2022/02/15 02:36:48;;;;;;;28.50;14.50;;;;;;;2.62;60.49;98664.70;106016;1277;111380;-73
2022/02/15 02:39:16;;;;;;;28.10;13.70;;;;;;;2.64;60.68;98661.26;106044;1276;97958;-68
2022/02/15 02:41:44;;;;;;;28.00;13.30;;;;;;;2.67;60.55;98660.77;105970;1276;107725;-69
2022/02/15 02:44:12;;;;;;;25.90;12.70;;;;;;;2.70;60.72;98654.70;105960;1277;98012;-70
2022/02/15 02:46:40;;;;;;;30.00;13.70;;;;;;;2.72;60.49;98652.88;106033;1276;97867;-70
2022/02/15 02:49:08;;;;;;;27.50;11.80;;;;;;;2.72;60.73;98651.63;106006;1277;111459;-71
2022/02/15 02:51:36;;;;;;;26.00;12.90;;;;;;;2.73;60.45;98658.06;106027;1276;97745;-70
2022/02/15 02:54:04;;;;;;;28.30;12.60;;;;;;;2.74;60.69;98656.25;106042;1276;107740;-70
2022/02/15 02:56:32;;;;;;;28.90;12.40;;;;;;;2.75;60.45;98655.52;106018;1277;97830;-71
2022/02/15 02:58:59;;;;;;;26.10;12.40;;;;;;;2.76;60.71;98659.33;106030;1276;97896;-71
2022/02/15 03:01:27;;;;;;;26.30;12.90;;;;;;;2.77;60.47;98653.33;105995;1277;111177;-72
2022/02/15 03:03:55;;;;;;;25.80;12.40;;;;;;;2.79;60.47;98652.70;105995;1276;95322;-70
2022/02/15 03:06:23;;;;;;;27.00;12.50;;;;;;;2.80;60.60;98649.16;105972;1276;106174;-68
2022/02/15 03:08:50;;;;;;;26.70;11.60;;;;;;;2.82;60.52;98646.44;106019;1276;95322;-70
2022/02/15 03:11:18;;;;;;;25.10;11.30;;;;;;;2.86;60.23;98646.60;106020;1276;97857;-70
2022/02/15 03:13:46;;;;;;;25.50;11.70;;;;;;;2.89;60.65;98648.35;105996;1276;111398;-70
2022/02/15 03:16:14;;;;;;;23.30;10.80;;;;;;;2.94;60.75;98649.51;105977;1276;95212;-71
2022/02/15 03:18:42;;;;;;;26.50;12.00;;;;;;;2.98;60.31;98647.40;105964;1276;107709;-71
2022/02/15 03:21:10;;;;;;;26.20;12.30;;;;;;;2.97;60.60;98642.21;106023;1276;95572;-72
2022/02/15 03:23:38;;;;;;;28.70;13.20;;;;;;;2.95;60.60;98646.33;106040;1276;98447;-71
2022/02/15 03:26:06;;;;;;;28.80;13.00;;;;;;;2.99;60.45;98640.90;106011;1276;111386;-71
2022/02/15 03:28:35;;;;;;;27.30;13.30;;;;;;;3.06;60.67;98645.80;106034;1276;95249;-72
2022/02/15 03:31:04;;;;;;;26.20;12.20;;;;;;;3.12;60.53;98645.17;105972;1276;107670;-71
2022/02/15 03:33:33;;;;;;;27.20;12.70;;;;;;;3.16;60.80;98645.35;106009;1277;98634;-71
2022/02/15 03:36:01;;;;;;;24.90;12.20;;;;;;;3.16;60.42;98651.80;105874;1276;255215;-71
2022/02/15 03:38:29;;;;;;;26.70;13.70;;;;;;;3.17;60.72;98648.61;106022;1277;111617;-71
2022/02/15 03:43:43;;;;;;;25.80;12.80;;;;;;;3.23;60.76;98649.52;105874;1277;107749;-71
2022/02/15 03:46:11;;;;;;;27.20;13.00;;;;;;;3.25;61.01;98653.10;105957;1278;98383;-69
2022/02/15 03:48:39;;;;;;;27.40;13.10;;;;;;;3.27;60.87;98650.55;106095;1277;97891;-70
2022/02/15 03:51:08;;;;;;;26.60;13.10;;;;;;;3.27;60.62;98646.33;106035;1277;111405;-71
2022/02/15 03:53:36;;;;;;;28.50;13.40;;;;;;;3.27;60.93;98643.89;106008;1278;97736;-70
2022/02/15 03:56:04;;;;;;;29.80;14.40;;;;;;;3.29;60.58;98638.73;105936;1278;107740;-70
2022/02/15 03:58:32;;;;;;;29.20;14.10;;;;;;;3.34;60.93;98633.77;105952;1279;97901;-70
2022/02/15 04:01:00;;;;;;;27.60;13.20;;;;;;;3.39;61.34;98637.90;106027;1277;97889;-68
2022/02/15 04:03:28;;;;;;;32.90;14.10;;;;;;;3.40;61.09;98633.08;106055;1277;112004;-69
2022/02/15 04:05:57;;;;;;;28.20;13.40;;;;;;;3.44;61.18;98633.44;106051;1276;97908;-70
2022/02/15 04:08:25;;;;;;;28.80;14.60;;;;;;;3.49;61.02;98633.52;106000;1276;108173;-71
2022/02/15 04:10:53;;;;;;;26.90;13.30;;;;;;;3.54;60.85;98633.80;105999;1276;95995;-70
2022/02/15 04:13:20;;;;;;;31.00;13.70;;;;;;;3.58;60.92;98628.67;106026;1277;97979;-69
2022/02/15 04:15:48;;;;;;;28.40;13.10;;;;;;;3.60;61.19;98627.55;106024;1277;111868;-69
2022/02/15 04:18:16;;;;;;;27.50;13.90;;;;;;;3.61;61.05;98626.65;106054;1277;97937;-69
2022/02/15 04:20:44;;;;;;;26.30;12.50;;;;;;;3.61;61.48;98624.50;106099;1277;107752;-69
2022/02/15 04:23:12;;;;;;;29.40;13.20;;;;;;;3.64;61.34;98630.53;105990;1277;97900;-69
2022/02/15 04:25:40;;;;;;;28.10;13.80;;;;;;;3.64;61.47;98630.48;106009;1277;97891;-71
2022/02/15 04:28:08;;;;;;;29.10;13.80;;;;;;;3.65;61.70;98629.23;105933;1277;110389;-69
2022/02/15 04:30:36;;;;;;;29.10;14.50;;;;;;;3.66;61.75;98625.51;106006;1277;97947;-70
2022/02/15 04:33:03;;;;;;;27.10;13.20;;;;;;;3.67;61.65;98630.50;106030;1277;107786;-71
2022/02/15 04:35:34;;;;;;;30.30;14.00;;;;;;;3.69;61.64;98623.91;106000;1277;97886;-70
2022/02/15 04:38:02;;;;;;;27.40;12.90;;;;;;;3.73;61.61;98620.59;106019;1276;97886;-70
2022/02/15 04:40:29;;;;;;;29.10;13.40;;;;;;;3.78;61.94;98619.96;105887;1277;111418;-70
2022/02/15 04:42:57;;;;;;;26.40;13.00;;;;;;;3.83;61.88;98626.36;106077;1277;96595;-69
2022/02/15 04:45:25;;;;;;;27.50;13.20;;;;;;;3.88;62.27;98626.45;105881;1277;107801;-71
2022/02/15 04:47:53;;;;;;;29.00;14.20;;;;;;;3.93;62.04;98627.45;106019;1277;97978;-69
2022/02/15 04:50:21;;;;;;;29.20;13.40;;;;;;;3.95;62.00;98629.26;105880;1278;97973;-70
2022/02/15 04:52:49;;;;;;;31.00;13.70;;;;;;;3.98;62.05;98631.58;105934;1277;111445;-71
2022/02/15 04:55:17;;;;;;;30.50;14.60;;;;;;;4.02;62.22;98630.11;106022;1277;97974;-71
2022/02/15 04:57:48;;;;;;;29.20;14.70;;;;;;;4.04;62.10;98632.66;106036;1277;107915;-72
2022/02/15 05:00:16;;;;;;;31.80;14.20;;;;;;;4.06;62.35;98634.85;105898;1278;95327;-73
2022/02/15 05:02:44;;;;;;;28.00;13.50;;;;;;;4.08;62.44;98635.60;105953;1277;95199;-71
2022/02/15 05:05:11;;;;;;;28.30;12.80;;;;;;;4.10;62.44;98635.63;105883;1277;110582;-70
2022/02/15 05:07:39;;;;;;;29.10;14.20;;;;;;;4.10;62.59;98641.30;106014;1277;98567;-70
2022/02/15 05:10:07;;;;;;;26.50;13.30;;;;;;;4.09;62.55;98636.77;105872;1277;107715;-70
2022/02/15 05:12:37;;;;;;;25.40;11.00;;;;;;;4.08;62.72;98632.26;105897;1277;96500;-71
2022/02/15 05:15:09;;;;;;;25.20;12.30;;;;;;;4.07;63.04;98632.30;105976;1277;97954;-71
2022/02/15 05:17:43;;;;;;;24.50;11.30;;;;;;;4.05;63.04;98633.31;105884;1282;110805;-74
2022/02/15 05:20:16;;;;;;;27.50;13.80;;;;;;;4.06;63.34;98626.41;105957;1276;95214;-71
2022/02/15 05:22:45;;;;;;;28.60;13.50;;;;;;;4.06;63.36;98626.39;105987;1277;107967;-73
2022/02/15 05:25:14;;;;;;;29.70;13.50;;;;;;;4.08;63.40;98621.20;106041;1277;95975;-72
2022/02/15 05:27:42;;;;;;;26.00;12.70;;;;;;;4.07;63.45;98618.81;105976;1277;96560;-72
2022/02/15 05:30:11;;;;;;;29.30;13.50;;;;;;;4.05;63.63;98614.38;105970;1277;110422;-72
2022/02/15 05:32:39;;;;;;;27.40;13.60;;;;;;;4.02;63.85;98616.79;105998;1277;97843;-73
2022/02/15 05:35:08;;;;;;;28.00;12.50;;;;;;;4.00;64.05;98618.30;105986;1277;107531;-71
2022/02/15 05:37:36;;;;;;;26.70;12.00;;;;;;;4.00;64.06;98614.45;105993;1277;96999;-72
2022/02/15 05:40:06;;;;;;;29.30;12.40;;;;;;;4.00;64.36;98621.11;106006;1277;97979;-71
2022/02/15 05:42:35;;;;;;;29.80;13.80;;;;;;;3.98;64.41;98618.95;106048;1276;111405;-73
2022/02/15 05:45:03;;;;;;;27.90;12.70;;;;;;;3.96;64.58;98626.73;106000;1277;97918;-72
2022/02/15 05:47:31;;;;;;;28.90;13.20;;;;;;;3.94;64.71;98637.01;106001;1276;107553;-71
2022/02/15 05:52:47;;;;;;;26.20;13.80;;;;;;;4.00;64.92;98644.77;105735;1278;97983;-74
2022/02/15 05:55:15;;;;;;;30.10;14.60;;;;;;;4.05;65.03;98639.09;106006;1277;111030;-72
2022/02/15 05:57:44;;;;;;;26.90;13.50;;;;;;;4.05;65.15;98633.85;106017;1277;98056;-76
2022/02/15 06:00:14;;;;;;;28.90;14.00;;;;;;;4.00;65.01;98633.36;105977;1277;107720;-74
2022/02/15 06:02:44;;;;;;;28.10;14.10;;;;;;;3.95;64.82;98633.27;105898;1277;97878;-74
2022/02/15 06:05:12;;;;;;;27.00;12.90;;;;;;;3.92;64.89;98637.80;105990;1277;97915;-73
2022/02/15 06:07:41;;;;;;;28.00;13.50;;;;;;;3.91;65.00;98636.98;105974;1278;109723;-75
2022/02/15 06:10:09;;;;;;;29.60;12.90;;;;;;;3.93;65.08;98642.84;106006;1277;96434;-74
2022/02/15 06:12:37;;;;;;;29.10;13.70;;;;;;;3.92;65.01;98650.81;106018;1276;106661;-74
2022/02/15 06:15:05;;;;;;;29.60;14.40;;;;;;;3.91;64.91;98657.70;106000;1278;97892;-74
2022/02/15 06:17:33;;;;;;;29.80;13.50;;;;;;;3.91;65.10;98656.66;105910;1277;97877;-74
2022/02/15 06:20:01;;;;;;;30.00;13.90;;;;;;;3.89;64.91;98652.17;105926;1278;111270;-73
2022/02/15 06:22:29;;;;;;;30.10;14.50;;;;;;;3.88;64.86;98654.15;105902;1277;97839;-72
2022/02/15 06:24:57;;;;;;;28.60;14.70;;;;;;;3.87;65.04;98649.14;105866;1277;107708;-73
2022/02/15 06:27:25;;;;;;;28.40;13.30;;;;;;;3.84;64.96;98650.88;105862;1277;97909;-74
2022/02/15 06:29:53;;;;;;;32.30;13.90;;;;;;;3.84;65.27;98650.20;105918;1277;97884;-75
2022/02/15 06:32:20;;;;;;;29.80;13.90;;;;;;;3.82;65.47;98652.73;105871;1277;111506;-74
2022/02/15 06:34:48;;;;;;;29.00;14.60;;;;;;;3.79;65.56;98649.89;105892;1277;97976;-74
2022/02/15 06:37:17;;;;;;;28.60;14.60;;;;;;;3.79;65.44;98650.28;105907;1277;107449;-74
2022/02/15 06:39:46;;;;;;;28.10;14.50;;;;;;;3.78;65.37;98646.98;105993;1277;97892;-74
2022/02/15 06:42:14;;;;;;;31.40;15.20;;;;;;;3.77;65.47;98649.16;106009;1277;95347;-74
2022/02/15 06:44:42;;;;;;;28.00;14.10;;;;;;;3.74;65.46;98652.60;105996;1278;111056;-75
2022/02/15 06:47:10;;;;;;;30.70;14.30;;;;;;;3.73;65.53;98655.46;105977;1278;97919;-73
2022/02/15 06:49:38;;;;;;;29.70;14.50;;;;;;;3.74;65.55;98657.37;105944;1277;107753;-73
2022/02/15 06:52:06;;;;;;;31.80;14.50;;;;;;;3.73;65.36;98663.85;105960;1278;97873;-74
2022/02/15 06:54:33;;;;;;;27.60;14.50;;;;;;;3.75;65.16;98668.52;105994;1278;97828;-73
2022/02/15 06:57:02;;;;;;;28.40;14.10;;;;;;;3.80;65.35;98668.11;105924;1277;111462;-75
2022/02/15 06:59:29;;;;;;;28.30;13.30;;;;;;;3.81;65.26;98664.87;105991;1277;97908;-75
2022/02/15 07:01:57;;;;;;;28.00;14.50;;;;;;;3.83;65.28;98662.33;105973;1277;107645;-75
2022/02/15 07:04:25;;;;;;;27.60;13.50;;;;;;;3.85;65.49;98658.01;105945;1277;98001;-71
2022/02/15 07:06:53;;;;;;;28.10;14.30;;;;;;;3.85;65.41;98655.89;105965;1277;97889;-72
2022/02/15 07:09:21;;;;;;;27.50;13.80;;;;;;;3.85;65.76;98667.66;105972;1277;111357;-71
2022/02/15 07:11:49;;;;;;;26.10;12.20;;;;;;;3.85;65.40;98662.23;105952;1277;98006;-73
2022/02/15 07:14:17;;;;;;;28.30;13.80;;;;;;;3.86;65.75;98666.73;106009;1277;107660;-76
2022/02/15 07:16:45;;;;;;;27.50;13.50;;;;;;;3.87;65.47;98677.34;106023;1277;97048;-74
2022/02/15 07:19:13;;;;;;;29.10;15.70;;;;;;;3.91;65.49;98684.55;106076;1277;98003;-74
2022/02/15 07:21:46;;;;;;;26.70;14.40;;;;;;;3.96;65.58;98691.81;106037;1277;110163;-74
2022/02/15 07:24:14;;;;;;;28.80;14.60;;;;;;;4.02;65.56;98693.27;106023;1277;95333;-73
2022/02/15 07:26:42;;;;;;;31.80;14.30;;;;;;;4.10;65.53;98693.93;106044;1278;107625;-71
2022/02/15 07:29:10;;;;;;;27.70;13.30;;;;;;;4.19;65.61;98693.47;106041;1277;97930;-73
2022/02/15 07:31:38;;;;;;;30.10;15.30;;;;;;;4.28;65.49;98695.84;106055;1277;97890;-73
2022/02/15 07:34:06;;;;;;;26.70;13.60;;;;;;;4.32;65.44;98697.51;106068;1276;111338;-74
2022/02/15 07:36:34;;;;;;;27.20;14.00;;;;;;;4.36;65.42;98701.91;106071;1277;95215;-74
2022/02/15 07:39:02;;;;;;;29.00;14.30;;;;;;;4.39;65.48;98700.68;106060;1277;107894;-73
2022/02/15 07:41:30;;;;;;;29.80;14.90;;;;;;;4.39;65.56;98703.48;106020;1277;97866;-73
2022/02/15 07:43:58;;;;;;;27.00;14.10;;;;;;;4.40;65.55;98702.91;106035;1277;97947;-74
2022/02/15 07:46:26;;;;;;;27.00;13.90;;;;;;;4.45;65.40;98702.66;106011;1278;111449;-74
2022/02/15 07:48:54;;;;;;;29.10;14.20;;;;;;;4.50;65.60;98710.66;106020;1277;95278;-74
2022/02/15 07:51:22;;;;;;;26.90;13.00;;;;;;;4.49;65.65;98715.44;105973;1277;107765;-74
2022/02/15 07:53:50;;;;;;;29.20;13.10;;;;;;;4.49;65.59;98714.38;105990;1277;98037;-73
2022/02/15 07:56:18;;;;;;;29.40;14.50;;;;;;;4.51;65.48;98717.22;105997;1277;97858;-74
2022/02/15 07:58:46;;;;;;;24.70;13.10;;;;;;;4.54;65.46;98719.38;106031;1277;111481;-74
2022/02/15 08:01:13;;;;;;;29.70;15.10;;;;;;;4.55;65.58;98717.53;105968;1277;95286;-73
2022/02/15 08:03:42;;;;;;;30.80;15.20;;;;;;;4.54;65.43;98721.83;106014;1277;107804;-76
2022/02/15 08:06:09;;;;;;;27.90;14.90;;;;;;;4.52;65.54;98722.95;106016;1277;97709;-74
2022/02/15 08:08:37;;;;;;;28.40;15.50;;;;;;;4.53;65.57;98720.84;106029;1277;97867;-73
2022/02/15 08:11:05;;;;;;;28.80;15.20;;;;;;;4.51;65.59;98719.70;105993;1277;111340;-72
2022/02/15 08:13:39;;;;;;;27.60;14.30;;;;;;;4.49;65.60;98720.86;106011;1276;97982;-75
2022/02/15 08:16:07;;;;;;;27.10;13.90;;;;;;;4.50;65.68;98722.56;106000;1277;107824;-74
2022/02/15 08:18:40;;;;;;;29.10;15.60;;;;;;;4.49;65.77;98724.00;105991;1277;98001;-73
2022/02/15 08:21:10;;;;;;;29.80;15.10;;;;;;;4.49;65.75;98719.45;106038;1277;97842;-73
2022/02/15 08:23:58;;;;;;;28.70;14.40;;;;;;;4.50;65.61;98718.14;106035;1277;111273;-74
2022/02/15 08:26:26;;;;;;;30.00;15.80;;;;;;;4.54;65.62;98713.89;105905;1277;97975;-73
2022/02/15 08:28:54;;;;;;;30.00;15.50;;;;;;;4.58;65.67;98711.07;105981;1277;107834;-73
2022/02/15 08:31:22;;;;;;;29.00;15.10;;;;;;;4.62;65.67;98709.80;105959;1277;97797;-73
2022/02/15 08:33:49;;;;;;;27.60;14.40;;;;;;;4.65;65.62;98706.65;105959;1277;97959;-76
2022/02/15 08:36:17;;;;;;;28.80;15.40;;;;;;;4.66;65.62;98703.45;105975;1277;111313;-74
2022/02/15 08:38:46;;;;;;;28.90;15.10;;;;;;;4.66;65.83;98702.59;105912;1277;97843;-72
2022/02/15 08:41:15;;;;;;;31.00;15.70;;;;;;;4.67;65.72;98704.30;105990;1276;107952;-74
2022/02/15 08:43:45;;;;;;;28.40;14.60;;;;;;;4.68;65.72;98702.50;105873;1277;97825;-74
2022/02/15 08:46:13;;;;;;;30.20;16.00;;;;;;;4.72;65.85;98703.65;105896;1277;96624;-73
2022/02/15 08:48:41;;;;;;;28.70;15.70;;;;;;;4.73;65.79;98699.36;105900;1277;111202;-73
2022/02/15 08:51:08;;;;;;;31.70;16.90;;;;;;;4.76;65.78;98702.36;105900;1278;98032;-74
2022/02/15 08:53:38;;;;;;;31.80;16.40;;;;;;;4.80;65.85;98702.02;105867;1277;107552;-74
2022/02/15 08:56:06;;;;;;;30.20;16.30;;;;;;;4.82;65.84;98710.68;105904;1278;98012;-74
2022/02/15 08:58:34;;;;;;;31.50;17.20;;;;;;;4.87;65.95;98712.16;105883;1277;97947;-72
2022/02/15 09:01:03;;;;;;;31.00;15.80;;;;;;;4.96;65.94;98720.64;105952;1277;111469;-74
2022/02/15 09:03:31;;;;;;;29.20;15.50;;;;;;;5.09;65.92;98722.70;105883;1277;97951;-73
2022/02/15 09:06:00;;;;;;;30.70;16.20;;;;;;;5.25;65.99;98721.13;105971;1276;107798;-73
2022/02/15 09:08:29;;;;;;;28.20;15.40;;;;;;;5.44;65.96;98722.33;105886;1277;97839;-73
2022/02/15 09:10:56;;;;;;;31.00;17.00;;;;;;;5.62;65.88;98716.08;105951;1277;97914;-74
2022/02/15 09:13:25;;;;;;;32.20;17.10;;;;;;;5.78;66.00;98711.96;105931;1277;111378;-74
2022/02/15 09:15:53;;;;;;;27.90;15.60;;;;;;;5.97;65.95;98715.59;105963;1277;97896;-72
2022/02/15 09:18:20;;;;;;;29.30;15.80;;;;;;;6.21;65.69;98718.45;105931;1276;107642;-73
2022/02/15 09:20:48;;;;;;;28.20;14.50;;;;;;;6.46;65.94;98708.49;105997;1276;97999;-74
2022/02/15 09:23:22;;;;;;;29.20;14.90;;;;;;;6.71;65.78;98708.34;105983;1277;95966;-75
2022/02/15 09:25:50;;;;;;;29.10;15.00;;;;;;;7.02;65.56;98702.20;106019;1276;111402;-75
2022/02/15 09:28:18;;;;;;;31.10;15.50;;;;;;;7.21;65.54;98704.88;106018;1277;97970;-75
2022/02/15 09:30:48;;;;;;;27.70;14.90;;;;;;;7.40;65.66;98703.61;105977;1277;108121;-74
2022/02/15 09:33:16;;;;;;;29.40;14.60;;;;;;;7.69;65.74;98704.00;106004;1277;97970;-74
2022/02/15 09:36:04;;;;;;;26.30;14.60;;;;;;;7.89;64.76;98697.91;105927;1278;95284;-74
2022/02/15 09:38:32;;;;;;;27.80;15.80;;;;;;;7.96;64.79;98699.41;105971;1277;111503;-75
2022/02/15 09:41:06;;;;;;;27.50;14.80;;;;;;;8.23;64.62;98700.73;105882;1277;98437;-73
2022/02/15 09:43:36;;;;;;;27.90;15.30;;;;;;;8.61;64.68;98708.05;105812;1277;107789;-74
2022/02/15 09:46:09;;;;;;;27.80;13.70;;;;;;;8.93;64.29;98710.98;106001;1277;97922;-73
2022/02/15 09:48:37;;;;;;;27.00;14.10;;;;;;;9.20;64.21;98712.02;105993;1276;97761;-74
2022/02/15 09:51:06;;;;;;;25.50;14.60;;;;;;;9.37;63.53;98710.80;105956;1276;110750;-73
2022/02/15 09:53:35;;;;;;;25.70;13.60;;;;;;;9.21;63.24;98710.37;105975;1277;98016;-73
2022/02/15 09:56:05;;;;;;;29.50;15.70;;;;;;;9.16;63.49;98713.35;106007;1277;106743;-74
2022/02/15 09:58:34;;;;;;;30.10;15.90;;;;;;;9.20;63.74;98715.36;105868;1277;98038;-74
2022/02/15 10:01:05;;;;;;;28.50;15.50;;;;;;;9.28;63.30;98717.86;105974;1277;98657;-74
2022/02/15 10:03:33;;;;;;;28.30;15.30;;;;;;;9.31;63.50;98720.45;105970;1276;111471;-74
2022/02/15 10:06:10;;;;;;;27.90;16.50;;;;;;;9.41;63.37;98719.38;105979;1277;95200;-76
2022/02/15 10:08:39;;;;;;;26.90;14.40;;;;;;;9.36;62.13;98721.13;105986;1276;107939;-74
2022/02/15 10:11:14;;;;;;;30.90;15.30;;;;;;;9.22;62.40;98717.02;105962;1276;95283;-74
2022/02/15 10:13:47;;;;;;;30.40;15.50;;;;;;;9.19;62.33;98712.77;106007;1277;97950;-74
2022/02/15 10:16:15;;;;;;;27.70;15.20;;;;;;;9.23;62.57;98711.11;105987;1276;111456;-75
2022/02/15 10:18:44;;;;;;;30.60;16.40;;;;;;;9.33;62.86;98707.19;105881;1276;97891;-75
2022/02/15 10:21:16;;;;;;;30.90;16.10;;;;;;;9.45;62.63;98701.36;105852;1276;107783;-74
2022/02/15 10:23:51;;;;;;;27.60;15.40;;;;;;;9.50;61.97;98712.48;106014;1276;97876;-75
2022/02/15 10:26:19;;;;;;;33.00;17.30;;;;;;;9.44;61.20;98711.56;106053;1277;97882;-75
2022/02/15 10:28:48;;;;;;;26.80;15.50;;;;;;;9.13;60.52;98713.73;105997;1276;111483;-75
2022/02/15 10:31:39;;;;;;;30.60;16.60;;;;;;;9.01;61.40;98713.75;105946;1277;96451;-75
2022/02/15 10:34:07;;;;;;;27.90;15.40;;;;;;;9.05;61.49;98715.58;105794;1278;107730;-74
2022/02/15 10:36:34;;;;;;;27.20;15.00;;;;;;;9.20;61.78;98716.61;105909;1277;95645;-74
2022/02/15 10:39:02;;;;;;;29.40;16.70;;;;;;;9.34;60.95;98720.95;105959;1276;97936;-74
2022/02/15 10:41:34;;;;;;;30.60;15.30;;;;;;;9.29;60.84;98721.10;105921;1276;111411;-73
2022/02/15 10:44:02;;;;;;;27.20;14.40;;;;;;;9.20;60.42;98719.80;105865;1276;96947;-75
2022/02/15 10:46:31;;;;;;;30.10;16.80;;;;;;;9.12;60.43;98723.20;105813;1276;107621;-75
2022/02/15 10:49:00;;;;;;;29.80;16.60;;;;;;;9.07;60.54;98723.06;105979;1276;95534;-72
2022/02/15 10:51:28;;;;;;;28.70;16.10;;;;;;;9.07;60.23;98724.25;105951;1276;97969;-73
2022/02/15 10:54:00;;;;;;;31.10;15.20;;;;;;;9.06;60.48;98726.13;105866;1276;113184;-74
2022/02/15 10:56:33;;;;;;;29.90;16.10;;;;;;;9.12;59.84;98726.78;106014;1277;96387;-74
2022/02/15 10:59:05;;;;;;;28.30;15.30;;;;;;;9.02;59.86;98724.77;105922;1276;107766;-72
2022/02/15 11:01:34;;;;;;;29.70;15.70;;;;;;;8.98;60.03;98727.19;105917;1276;98337;-74
2022/02/15 11:04:03;;;;;;;29.50;16.20;;;;;;;9.05;60.08;98724.55;105902;1276;97775;-74
2022/02/15 11:06:32;;;;;;;30.60;16.10;;;;;;;9.11;59.98;98720.28;105903;1276;111315;-74
2022/02/15 11:09:05;;;;;;;30.50;16.10;;;;;;;9.21;60.35;98718.67;105910;1278;97910;-74
2022/02/15 11:11:47;;;;;;;31.70;15.80;;;;;;;9.38;60.14;98711.61;105947;1277;108256;-72
2022/02/15 11:14:15;;;;;;;30.40;15.80;;;;;;;9.47;59.99;98715.71;105888;1276;95894;-76
2022/02/15 11:16:51;;;;;;;29.90;16.50;;;;;;;9.41;59.48;98708.73;105853;1276;97988;-73
2022/02/15 11:19:32;;;;;;;30.90;15.40;;;;;;;9.28;59.68;98713.59;105914;1276;112381;-74
2022/02/15 11:22:00;;;;;;;30.20;16.10;;;;;;;9.26;59.28;98713.02;105824;1277;97943;-74
2022/02/15 11:24:39;;;;;;;32.80;17.20;;;;;;;9.16;59.24;98716.77;105763;1277;107841;-74
2022/02/15 11:27:16;;;;;;;29.90;16.30;;;;;;;9.11;59.01;98718.31;105905;1277;97932;-72
2022/02/15 11:29:51;;;;;;;28.70;16.20;;;;;;;9.02;59.05;98719.55;105954;1276;97988;-74